sensor_id;sensor_type;location;lat;lon;timestamp;P1;durP1;ratioP1;P2;durP2;ratioP2
39930;SDS011;26635;-35.248;149.138;2023-06-19T00:00:46;3.55;;;0.90;;
39930;SDS011;26635;-35.248;149.138;2023-06-19T00:03:17;3.45;;;0.73;;
39930;SDS011;26635;-35.248;149.138;2023-06-19T00:05:48;2.40;;;0.70;;
39930;SDS011;26635;-35.248;149.138;2023-06-19T00:08:19;4.25;;;1.33;;
39930;SDS011;26635;-35.248;149.138;2023-06-19T00:10:49;2.10;;;0.60;;
39930;SDS011;26635;-35.248;149.138;2023-06-19T00:13:20;4.57;;;0.50;;
39930;SDS011;26635;-35.248;149.138;2023-06-19T00:15:51;2.85;;;0.90;;
39930;SDS011;26635;-35.248;149.138;2023-06-19T00:18:23;0.80;;;0.40;;
39930;SDS011;26635;-35.248;149.138;2023-06-19T00:20:54;5.65;;;1.00;;
39930;SDS011;26635;-35.248;149.138;2023-06-19T00:23:25;1.55;;;0.30;;
39930;SDS011;26635;-35.248;149.138;2023-06-19T00:25:56;3.15;;;0.40;;
39930;SDS011;26635;-35.248;149.138;2023-06-19T00:28:30;3.40;;;0.50;;
39930;SDS011;26635;-35.248;149.138;2023-06-19T00:31:01;4.32;;;0.52;;
39930;SDS011;26635;-35.248;149.138;2023-06-19T00:33:32;2.28;;;0.30;;
39930;SDS011;26635;-35.248;149.138;2023-06-19T00:36:02;7.57;;;1.52;;
39930;SDS011;26635;-35.248;149.138;2023-06-19T00:38:39;4.70;;;0.63;;
39930;SDS011;26635;-35.248;149.138;2023-06-19T00:41:11;1.90;;;0.40;;
39930;SDS011;26635;-35.248;149.138;2023-06-19T00:43:43;3.17;;;0.70;;
39930;SDS011;26635;-35.248;149.138;2023-06-19T00:46:14;1.25;;;0.50;;
39930;SDS011;26635;-35.248;149.138;2023-06-19T00:48:45;3.30;;;0.50;;
39930;SDS011;26635;-35.248;149.138;2023-06-19T00:51:16;2.13;;;0.77;;
39930;SDS011;26635;-35.248;149.138;2023-06-19T00:53:46;1.33;;;0.28;;
39930;SDS011;26635;-35.248;149.138;2023-06-19T00:56:17;1.55;;;0.47;;
39930;SDS011;26635;-35.248;149.138;2023-06-19T00:58:48;1.95;;;0.60;;
39930;SDS011;26635;-35.248;149.138;2023-06-19T01:01:20;4.70;;;0.60;;
39930;SDS011;26635;-35.248;149.138;2023-06-19T01:03:54;2.40;;;0.57;;
39930;SDS011;26635;-35.248;149.138;2023-06-19T01:06:27;3.33;;;0.60;;
39930;SDS011;26635;-35.248;149.138;2023-06-19T01:09:10;2.55;;;0.77;;
39930;SDS011;26635;-35.248;149.138;2023-06-19T01:11:44;1.95;;;0.35;;
39930;SDS011;26635;-35.248;149.138;2023-06-19T01:14:19;1.15;;;0.30;;
39930;SDS011;26635;-35.248;149.138;2023-06-19T01:16:55;2.33;;;0.47;;
39930;SDS011;26635;-35.248;149.138;2023-06-19T01:19:26;1.83;;;0.40;;
39930;SDS011;26635;-35.248;149.138;2023-06-19T01:22:01;2.88;;;1.35;;
39930;SDS011;26635;-35.248;149.138;2023-06-19T01:24:32;3.60;;;1.20;;
39930;SDS011;26635;-35.248;149.138;2023-06-19T01:27:03;2.67;;;0.38;;
39930;SDS011;26635;-35.248;149.138;2023-06-19T01:29:34;1.42;;;0.20;;
39930;SDS011;26635;-35.248;149.138;2023-06-19T01:32:10;2.83;;;0.40;;
39930;SDS011;26635;-35.248;149.138;2023-06-19T01:34:50;2.55;;;1.02;;
39930;SDS011;26635;-35.248;149.138;2023-06-19T01:37:24;2.20;;;0.65;;
39930;SDS011;26635;-35.248;149.138;2023-06-19T01:40:02;2.70;;;0.35;;
39930;SDS011;26635;-35.248;149.138;2023-06-19T01:42:34;2.97;;;1.20;;
39930;SDS011;26635;-35.248;149.138;2023-06-19T01:45:09;1.90;;;0.40;;
39930;SDS011;26635;-35.248;149.138;2023-06-19T01:47:40;1.48;;;0.70;;
39930;SDS011;26635;-35.248;149.138;2023-06-19T01:50:10;2.85;;;0.43;;
39930;SDS011;26635;-35.248;149.138;2023-06-19T01:52:41;1.83;;;0.98;;
39930;SDS011;26635;-35.248;149.138;2023-06-19T01:55:12;3.90;;;0.40;;
39930;SDS011;26635;-35.248;149.138;2023-06-19T01:57:45;2.97;;;0.40;;
39930;SDS011;26635;-35.248;149.138;2023-06-19T02:00:15;3.67;;;0.80;;
39930;SDS011;26635;-35.248;149.138;2023-06-19T02:02:47;1.95;;;0.30;;
39930;SDS011;26635;-35.248;149.138;2023-06-19T02:05:17;2.75;;;0.40;;
39930;SDS011;26635;-35.248;149.138;2023-06-19T02:07:51;1.33;;;0.20;;
39930;SDS011;26635;-35.248;149.138;2023-06-19T02:10:55;1.00;;;0.65;;
39930;SDS011;26635;-35.248;149.138;2023-06-19T02:13:26;1.52;;;0.20;;
39930;SDS011;26635;-35.248;149.138;2023-06-19T02:15:58;0.60;;;0.15;;
39930;SDS011;26635;-35.248;149.138;2023-06-19T02:18:29;0.85;;;0.20;;
39930;SDS011;26635;-35.248;149.138;2023-06-19T02:20:59;1.42;;;0.20;;
39930;SDS011;26635;-35.248;149.138;2023-06-19T02:23:30;2.60;;;0.30;;
39930;SDS011;26635;-35.248;149.138;2023-06-19T02:26:01;4.22;;;0.40;;
39930;SDS011;26635;-35.248;149.138;2023-06-19T02:28:31;2.83;;;0.35;;
39930;SDS011;26635;-35.248;149.138;2023-06-19T02:31:02;1.70;;;0.65;;
39930;SDS011;26635;-35.248;149.138;2023-06-19T02:33:33;2.00;;;0.30;;
39930;SDS011;26635;-35.248;149.138;2023-06-19T02:36:04;2.25;;;0.32;;
39930;SDS011;26635;-35.248;149.138;2023-06-19T02:38:34;1.33;;;0.17;;
39930;SDS011;26635;-35.248;149.138;2023-06-19T02:41:04;3.08;;;0.35;;
39930;SDS011;26635;-35.248;149.138;2023-06-19T02:43:35;1.27;;;0.30;;
39930;SDS011;26635;-35.248;149.138;2023-06-19T02:46:06;1.42;;;0.20;;
39930;SDS011;26635;-35.248;149.138;2023-06-19T02:48:39;3.50;;;0.30;;
39930;SDS011;26635;-35.248;149.138;2023-06-19T02:51:09;4.80;;;1.15;;
39930;SDS011;26635;-35.248;149.138;2023-06-19T02:53:40;1.73;;;0.40;;
39930;SDS011;26635;-35.248;149.138;2023-06-19T02:56:12;1.60;;;0.22;;
39930;SDS011;26635;-35.248;149.138;2023-06-19T02:58:42;3.15;;;0.50;;
39930;SDS011;26635;-35.248;149.138;2023-06-19T03:01:13;0.95;;;0.40;;
39930;SDS011;26635;-35.248;149.138;2023-06-19T03:03:44;3.70;;;0.32;;
39930;SDS011;26635;-35.248;149.138;2023-06-19T03:06:15;1.80;;;0.70;;
39930;SDS011;26635;-35.248;149.138;2023-06-19T03:08:46;2.97;;;0.50;;
39930;SDS011;26635;-35.248;149.138;2023-06-19T03:11:17;3.03;;;0.75;;
39930;SDS011;26635;-35.248;149.138;2023-06-19T03:13:51;1.95;;;0.25;;
39930;SDS011;26635;-35.248;149.138;2023-06-19T03:16:23;2.95;;;0.70;;
39930;SDS011;26635;-35.248;149.138;2023-06-19T03:18:53;3.42;;;0.30;;
39930;SDS011;26635;-35.248;149.138;2023-06-19T03:21:23;1.38;;;0.30;;
39930;SDS011;26635;-35.248;149.138;2023-06-19T03:23:54;3.90;;;0.30;;
39930;SDS011;26635;-35.248;149.138;2023-06-19T03:26:24;2.95;;;0.45;;
39930;SDS011;26635;-35.248;149.138;2023-06-19T03:28:56;4.18;;;0.60;;
39930;SDS011;26635;-35.248;149.138;2023-06-19T03:31:27;5.55;;;0.43;;
39930;SDS011;26635;-35.248;149.138;2023-06-19T03:33:58;2.45;;;0.52;;
39930;SDS011;26635;-35.248;149.138;2023-06-19T03:36:28;2.33;;;0.43;;
39930;SDS011;26635;-35.248;149.138;2023-06-19T03:38:59;1.95;;;0.20;;
39930;SDS011;26635;-35.248;149.138;2023-06-19T03:41:29;1.00;;;0.30;;
39930;SDS011;26635;-35.248;149.138;2023-06-19T03:44:00;3.25;;;0.35;;
39930;SDS011;26635;-35.248;149.138;2023-06-19T03:46:31;1.17;;;0.20;;
39930;SDS011;26635;-35.248;149.138;2023-06-19T03:49:01;3.95;;;0.38;;
39930;SDS011;26635;-35.248;149.138;2023-06-19T03:51:33;1.58;;;0.20;;
39930;SDS011;26635;-35.248;149.138;2023-06-19T03:54:04;1.73;;;0.20;;
39930;SDS011;26635;-35.248;149.138;2023-06-19T03:56:35;0.60;;;0.28;;
39930;SDS011;26635;-35.248;149.138;2023-06-19T03:59:05;1.67;;;0.20;;
39930;SDS011;26635;-35.248;149.138;2023-06-19T04:01:36;0.93;;;0.20;;
39930;SDS011;26635;-35.248;149.138;2023-06-19T04:04:09;1.30;;;0.20;;
39930;SDS011;26635;-35.248;149.138;2023-06-19T04:06:39;1.20;;;0.30;;
39930;SDS011;26635;-35.248;149.138;2023-06-19T04:09:11;2.17;;;0.40;;
39930;SDS011;26635;-35.248;149.138;2023-06-19T04:11:43;2.72;;;0.10;;
39930;SDS011;26635;-35.248;149.138;2023-06-19T04:14:14;2.50;;;0.25;;
39930;SDS011;26635;-35.248;149.138;2023-06-19T04:16:45;3.42;;;0.63;;
39930;SDS011;26635;-35.248;149.138;2023-06-19T04:19:15;1.05;;;0.20;;
39930;SDS011;26635;-35.248;149.138;2023-06-19T04:21:46;1.75;;;0.20;;
39930;SDS011;26635;-35.248;149.138;2023-06-19T04:24:17;0.90;;;0.35;;
39930;SDS011;26635;-35.248;149.138;2023-06-19T04:26:47;3.13;;;0.40;;
39930;SDS011;26635;-35.248;149.138;2023-06-19T04:29:18;1.73;;;0.30;;
39930;SDS011;26635;-35.248;149.138;2023-06-19T04:31:49;1.38;;;0.20;;
39930;SDS011;26635;-35.248;149.138;2023-06-19T04:34:19;1.65;;;0.20;;
39930;SDS011;26635;-35.248;149.138;2023-06-19T04:36:50;0.63;;;0.10;;
39930;SDS011;26635;-35.248;149.138;2023-06-19T04:39:21;1.27;;;0.45;;
39930;SDS011;26635;-35.248;149.138;2023-06-19T04:41:51;0.93;;;0.30;;
39930;SDS011;26635;-35.248;149.138;2023-06-19T04:44:22;1.67;;;0.43;;
39930;SDS011;26635;-35.248;149.138;2023-06-19T04:46:52;1.40;;;0.30;;
39930;SDS011;26635;-35.248;149.138;2023-06-19T04:49:29;4.63;;;0.30;;
39930;SDS011;26635;-35.248;149.138;2023-06-19T04:51:59;1.50;;;0.22;;
39930;SDS011;26635;-35.248;149.138;2023-06-19T04:54:30;1.88;;;0.30;;
39930;SDS011;26635;-35.248;149.138;2023-06-19T04:57:03;1.40;;;0.20;;
39930;SDS011;26635;-35.248;149.138;2023-06-19T04:59:35;1.13;;;0.20;;
39930;SDS011;26635;-35.248;149.138;2023-06-19T05:02:05;3.83;;;0.45;;
39930;SDS011;26635;-35.248;149.138;2023-06-19T05:04:36;1.38;;;0.40;;
39930;SDS011;26635;-35.248;149.138;2023-06-19T05:07:11;5.05;;;0.90;;
39930;SDS011;26635;-35.248;149.138;2023-06-19T05:09:44;5.13;;;0.45;;
39930;SDS011;26635;-35.248;149.138;2023-06-19T05:12:14;2.00;;;0.20;;
39930;SDS011;26635;-35.248;149.138;2023-06-19T05:14:45;3.05;;;0.30;;
39930;SDS011;26635;-35.248;149.138;2023-06-19T05:17:16;2.13;;;0.20;;
39930;SDS011;26635;-35.248;149.138;2023-06-19T05:19:47;1.15;;;0.20;;
39930;SDS011;26635;-35.248;149.138;2023-06-19T05:22:18;1.23;;;0.30;;
39930;SDS011;26635;-35.248;149.138;2023-06-19T05:24:50;5.05;;;0.30;;
39930;SDS011;26635;-35.248;149.138;2023-06-19T05:27:20;0.40;;;0.20;;
39930;SDS011;26635;-35.248;149.138;2023-06-19T05:29:51;1.65;;;0.25;;
39930;SDS011;26635;-35.248;149.138;2023-06-19T05:32:22;1.10;;;0.57;;
39930;SDS011;26635;-35.248;149.138;2023-06-19T05:34:56;2.70;;;0.22;;
39930;SDS011;26635;-35.248;149.138;2023-06-19T05:37:27;1.83;;;0.40;;
39930;SDS011;26635;-35.248;149.138;2023-06-19T05:39:57;3.28;;;0.70;;
39930;SDS011;26635;-35.248;149.138;2023-06-19T05:42:28;1.58;;;0.85;;
39930;SDS011;26635;-35.248;149.138;2023-06-19T05:44:59;3.50;;;0.50;;
39930;SDS011;26635;-35.248;149.138;2023-06-19T05:47:31;3.92;;;0.50;;
39930;SDS011;26635;-35.248;149.138;2023-06-19T05:50:01;3.03;;;0.60;;
39930;SDS011;26635;-35.248;149.138;2023-06-19T05:52:32;2.88;;;0.35;;
39930;SDS011;26635;-35.248;149.138;2023-06-19T05:55:02;2.85;;;0.50;;
39930;SDS011;26635;-35.248;149.138;2023-06-19T05:57:33;3.50;;;0.30;;
39930;SDS011;26635;-35.248;149.138;2023-06-19T06:00:04;3.40;;;0.60;;
39930;SDS011;26635;-35.248;149.138;2023-06-19T06:02:40;3.30;;;0.93;;
39930;SDS011;26635;-35.248;149.138;2023-06-19T06:05:10;1.15;;;0.25;;
39930;SDS011;26635;-35.248;149.138;2023-06-19T06:07:41;0.65;;;0.30;;
39930;SDS011;26635;-35.248;149.138;2023-06-19T06:10:12;1.15;;;0.30;;
39930;SDS011;26635;-35.248;149.138;2023-06-19T06:12:42;0.82;;;0.20;;
39930;SDS011;26635;-35.248;149.138;2023-06-19T06:15:13;1.55;;;0.95;;
39930;SDS011;26635;-35.248;149.138;2023-06-19T06:17:43;3.42;;;0.50;;
39930;SDS011;26635;-35.248;149.138;2023-06-19T06:20:14;1.73;;;0.35;;
39930;SDS011;26635;-35.248;149.138;2023-06-19T06:22:45;1.15;;;0.22;;
39930;SDS011;26635;-35.248;149.138;2023-06-19T06:25:15;0.50;;;0.20;;
39930;SDS011;26635;-35.248;149.138;2023-06-19T06:27:46;0.85;;;0.10;;
39930;SDS011;26635;-35.248;149.138;2023-06-19T06:30:16;1.10;;;0.20;;
39930;SDS011;26635;-35.248;149.138;2023-06-19T06:32:47;0.65;;;0.20;;
39930;SDS011;26635;-35.248;149.138;2023-06-19T06:35:18;1.35;;;0.28;;
39930;SDS011;26635;-35.248;149.138;2023-06-19T06:37:48;0.10;;;0.08;;
39930;SDS011;26635;-35.248;149.138;2023-06-19T06:40:19;0.82;;;0.10;;
39930;SDS011;26635;-35.248;149.138;2023-06-19T06:42:49;0.95;;;0.10;;
39930;SDS011;26635;-35.248;149.138;2023-06-19T06:45:22;0.85;;;0.30;;
39930;SDS011;26635;-35.248;149.138;2023-06-19T06:47:54;1.67;;;0.30;;
39930;SDS011;26635;-35.248;149.138;2023-06-19T06:50:24;0.47;;;0.20;;
39930;SDS011;26635;-35.248;149.138;2023-06-19T06:52:54;1.08;;;0.20;;
39930;SDS011;26635;-35.248;149.138;2023-06-19T06:55:25;2.92;;;0.30;;
39930;SDS011;26635;-35.248;149.138;2023-06-19T06:57:56;0.50;;;0.10;;
39930;SDS011;26635;-35.248;149.138;2023-06-19T07:00:26;1.02;;;0.40;;
39930;SDS011;26635;-35.248;149.138;2023-06-19T07:02:57;0.55;;;0.10;;
39930;SDS011;26635;-35.248;149.138;2023-06-19T07:05:28;0.20;;;0.10;;
39930;SDS011;26635;-35.248;149.138;2023-06-19T07:07:58;0.08;;;0.03;;
39930;SDS011;26635;-35.248;149.138;2023-06-19T07:10:29;0.43;;;0.10;;
39930;SDS011;26635;-35.248;149.138;2023-06-19T07:13:00;0.75;;;0.20;;
39930;SDS011;26635;-35.248;149.138;2023-06-19T07:15:30;1.13;;;0.50;;
39930;SDS011;26635;-35.248;149.138;2023-06-19T07:18:00;0.28;;;0.10;;
39930;SDS011;26635;-35.248;149.138;2023-06-19T07:20:31;0.40;;;0.15;;
39930;SDS011;26635;-35.248;149.138;2023-06-19T07:23:02;1.10;;;0.20;;
39930;SDS011;26635;-35.248;149.138;2023-06-19T07:25:32;0.82;;;0.32;;
39930;SDS011;26635;-35.248;149.138;2023-06-19T07:28:02;0.47;;;0.20;;
39930;SDS011;26635;-35.248;149.138;2023-06-19T07:30:33;0.55;;;0.20;;
39930;SDS011;26635;-35.248;149.138;2023-06-19T07:33:03;0.30;;;0.10;;
39930;SDS011;26635;-35.248;149.138;2023-06-19T07:35:35;0.50;;;0.17;;
39930;SDS011;26635;-35.248;149.138;2023-06-19T07:38:06;1.17;;;0.20;;
39930;SDS011;26635;-35.248;149.138;2023-06-19T07:40:37;0.50;;;0.10;;
39930;SDS011;26635;-35.248;149.138;2023-06-19T07:43:07;1.70;;;0.20;;
39930;SDS011;26635;-35.248;149.138;2023-06-19T07:45:38;0.20;;;0.10;;
39930;SDS011;26635;-35.248;149.138;2023-06-19T07:48:09;0.38;;;0.15;;
39930;SDS011;26635;-35.248;149.138;2023-06-19T07:50:40;1.20;;;0.28;;
39930;SDS011;26635;-35.248;149.138;2023-06-19T07:53:10;2.30;;;0.60;;
39930;SDS011;26635;-35.248;149.138;2023-06-19T07:55:42;1.13;;;0.55;;
39930;SDS011;26635;-35.248;149.138;2023-06-19T07:58:12;1.83;;;0.52;;
39930;SDS011;26635;-35.248;149.138;2023-06-19T08:00:44;1.85;;;1.27;;
39930;SDS011;26635;-35.248;149.138;2023-06-19T08:03:15;1.13;;;0.40;;
39930;SDS011;26635;-35.248;149.138;2023-06-19T08:05:47;1.98;;;1.10;;
39930;SDS011;26635;-35.248;149.138;2023-06-19T08:08:20;2.50;;;0.70;;
39930;SDS011;26635;-35.248;149.138;2023-06-19T08:10:54;2.30;;;1.25;;
39930;SDS011;26635;-35.248;149.138;2023-06-19T08:13:24;1.42;;;0.80;;
39930;SDS011;26635;-35.248;149.138;2023-06-19T08:15:54;4.15;;;1.65;;
39930;SDS011;26635;-35.248;149.138;2023-06-19T08:18:25;4.53;;;1.70;;
39930;SDS011;26635;-35.248;149.138;2023-06-19T08:20:55;2.63;;;1.90;;
39930;SDS011;26635;-35.248;149.138;2023-06-19T08:23:26;4.25;;;1.63;;
39930;SDS011;26635;-35.248;149.138;2023-06-19T08:25:57;4.60;;;1.80;;
39930;SDS011;26635;-35.248;149.138;2023-06-19T08:28:27;4.30;;;2.25;;
39930;SDS011;26635;-35.248;149.138;2023-06-19T08:30:57;3.50;;;1.73;;
39930;SDS011;26635;-35.248;149.138;2023-06-19T08:33:28;2.72;;;0.90;;
39930;SDS011;26635;-35.248;149.138;2023-06-19T08:35:59;0.82;;;0.50;;
39930;SDS011;26635;-35.248;149.138;2023-06-19T08:38:31;0.40;;;0.25;;
39930;SDS011;26635;-35.248;149.138;2023-06-19T08:41:02;1.10;;;0.30;;
39930;SDS011;26635;-35.248;149.138;2023-06-19T08:43:32;0.90;;;0.30;;
39930;SDS011;26635;-35.248;149.138;2023-06-19T08:46:06;1.15;;;0.20;;
39930;SDS011;26635;-35.248;149.138;2023-06-19T08:48:41;0.63;;;0.20;;
39930;SDS011;26635;-35.248;149.138;2023-06-19T08:51:13;1.75;;;0.30;;
39930;SDS011;26635;-35.248;149.138;2023-06-19T08:53:45;0.43;;;0.20;;
39930;SDS011;26635;-35.248;149.138;2023-06-19T08:56:21;1.05;;;0.30;;
39930;SDS011;26635;-35.248;149.138;2023-06-19T08:58:51;1.33;;;0.20;;
39930;SDS011;26635;-35.248;149.138;2023-06-19T09:01:23;0.93;;;0.28;;
39930;SDS011;26635;-35.248;149.138;2023-06-19T09:03:55;0.50;;;0.30;;
39930;SDS011;26635;-35.248;149.138;2023-06-19T09:06:26;1.27;;;0.20;;
39930;SDS011;26635;-35.248;149.138;2023-06-19T09:09:00;0.38;;;0.20;;
39930;SDS011;26635;-35.248;149.138;2023-06-19T09:11:31;1.02;;;0.45;;
39930;SDS011;26635;-35.248;149.138;2023-06-19T09:14:02;0.57;;;0.30;;
39930;SDS011;26635;-35.248;149.138;2023-06-19T09:16:39;0.95;;;0.30;;
39930;SDS011;26635;-35.248;149.138;2023-06-19T09:19:10;0.77;;;0.20;;
39930;SDS011;26635;-35.248;149.138;2023-06-19T09:21:49;0.70;;;0.25;;
39930;SDS011;26635;-35.248;149.138;2023-06-19T09:24:19;0.60;;;0.25;;
39930;SDS011;26635;-35.248;149.138;2023-06-19T09:26:50;0.45;;;0.22;;
39930;SDS011;26635;-35.248;149.138;2023-06-19T09:29:21;1.25;;;0.40;;
39930;SDS011;26635;-35.248;149.138;2023-06-19T09:31:51;1.08;;;0.50;;
39930;SDS011;26635;-35.248;149.138;2023-06-19T09:34:25;1.08;;;0.40;;
39930;SDS011;26635;-35.248;149.138;2023-06-19T09:36:55;1.02;;;0.50;;
39930;SDS011;26635;-35.248;149.138;2023-06-19T09:39:26;0.52;;;0.22;;
39930;SDS011;26635;-35.248;149.138;2023-06-19T09:41:58;0.50;;;0.30;;
39930;SDS011;26635;-35.248;149.138;2023-06-19T09:44:35;1.80;;;0.25;;
39930;SDS011;26635;-35.248;149.138;2023-06-19T09:47:20;0.30;;;0.10;;
39930;SDS011;26635;-35.248;149.138;2023-06-19T09:49:54;0.10;;;0.10;;
39930;SDS011;26635;-35.248;149.138;2023-06-19T09:52:25;0.40;;;0.20;;
39930;SDS011;26635;-35.248;149.138;2023-06-19T09:54:56;0.30;;;0.17;;
39930;SDS011;26635;-35.248;149.138;2023-06-19T09:57:26;1.05;;;0.35;;
39930;SDS011;26635;-35.248;149.138;2023-06-19T09:59:58;0.60;;;0.30;;
39930;SDS011;26635;-35.248;149.138;2023-06-19T10:02:41;1.98;;;0.70;;
39930;SDS011;26635;-35.248;149.138;2023-06-19T10:05:14;1.83;;;0.63;;
39930;SDS011;26635;-35.248;149.138;2023-06-19T10:07:47;2.10;;;1.15;;
39930;SDS011;26635;-35.248;149.138;2023-06-19T10:10:25;1.98;;;0.90;;
39930;SDS011;26635;-35.248;149.138;2023-06-19T10:13:10;7.80;;;4.28;;
39930;SDS011;26635;-35.248;149.138;2023-06-19T10:15:43;7.13;;;3.30;;
39930;SDS011;26635;-35.248;149.138;2023-06-19T10:18:16;7.25;;;4.20;;
39930;SDS011;26635;-35.248;149.138;2023-06-19T10:20:48;10.67;;;6.53;;
39930;SDS011;26635;-35.248;149.138;2023-06-19T10:23:19;7.95;;;4.55;;
39930;SDS011;26635;-35.248;149.138;2023-06-19T10:26:00;5.05;;;2.83;;
39930;SDS011;26635;-35.248;149.138;2023-06-19T10:28:31;5.20;;;2.47;;
39930;SDS011;26635;-35.248;149.138;2023-06-19T10:31:05;4.10;;;2.40;;
39930;SDS011;26635;-35.248;149.138;2023-06-19T10:34:02;5.50;;;2.27;;
39930;SDS011;26635;-35.248;149.138;2023-06-19T10:36:38;6.93;;;3.63;;
39930;SDS011;26635;-35.248;149.138;2023-06-19T10:39:11;9.77;;;5.27;;
39930;SDS011;26635;-35.248;149.138;2023-06-19T10:42:27;4.53;;;2.77;;
39930;SDS011;26635;-35.248;149.138;2023-06-19T10:45:06;4.87;;;3.03;;
39930;SDS011;26635;-35.248;149.138;2023-06-19T10:48:21;4.40;;;2.50;;
39930;SDS011;26635;-35.248;149.138;2023-06-19T10:51:11;5.13;;;2.50;;
39930;SDS011;26635;-35.248;149.138;2023-06-19T10:53:59;4.33;;;1.90;;
39930;SDS011;26635;-35.248;149.138;2023-06-19T10:57:18;5.10;;;2.97;;
39930;SDS011;26635;-35.248;149.138;2023-06-19T10:59:59;4.73;;;3.13;;
39930;SDS011;26635;-35.248;149.138;2023-06-19T11:02:46;6.57;;;2.90;;
39930;SDS011;26635;-35.248;149.138;2023-06-19T11:05:29;3.20;;;2.30;;
39930;SDS011;26635;-35.248;149.138;2023-06-19T11:08:26;3.10;;;1.85;;
39930;SDS011;26635;-35.248;149.138;2023-06-19T11:10:56;3.13;;;1.90;;
39930;SDS011;26635;-35.248;149.138;2023-06-19T11:13:47;4.77;;;1.97;;
39930;SDS011;26635;-35.248;149.138;2023-06-19T11:20:13;4.77;;;3.10;;
39930;SDS011;26635;-35.248;149.138;2023-06-19T11:22:59;4.63;;;2.90;;
39930;SDS011;26635;-35.248;149.138;2023-06-19T11:26:02;3.53;;;2.37;;
39930;SDS011;26635;-35.248;149.138;2023-06-19T11:28:47;3.63;;;2.10;;
39930;SDS011;26635;-35.248;149.138;2023-06-19T11:31:27;4.43;;;2.50;;
39930;SDS011;26635;-35.248;149.138;2023-06-19T11:34:01;4.30;;;2.13;;
39930;SDS011;26635;-35.248;149.138;2023-06-19T11:37:32;3.77;;;2.53;;
39930;SDS011;26635;-35.248;149.138;2023-06-19T11:40:05;4.53;;;1.57;;
39930;SDS011;26635;-35.248;149.138;2023-06-19T11:42:48;5.57;;;2.50;;
39930;SDS011;26635;-35.248;149.138;2023-06-19T11:49:16;4.00;;;2.47;;
39930;SDS011;26635;-35.248;149.138;2023-06-19T11:52:04;3.20;;;1.83;;
39930;SDS011;26635;-35.248;149.138;2023-06-19T11:54:38;3.47;;;1.40;;
39930;SDS011;26635;-35.248;149.138;2023-06-19T11:57:28;3.77;;;1.70;;
39930;SDS011;26635;-35.248;149.138;2023-06-19T11:59:58;2.53;;;1.40;;
39930;SDS011;26635;-35.248;149.138;2023-06-19T12:02:29;3.00;;;1.57;;
39930;SDS011;26635;-35.248;149.138;2023-06-19T12:05:00;3.97;;;1.70;;
39930;SDS011;26635;-35.248;149.138;2023-06-19T12:07:32;3.70;;;1.70;;
39930;SDS011;26635;-35.248;149.138;2023-06-19T12:10:58;3.87;;;1.40;;
39930;SDS011;26635;-35.248;149.138;2023-06-19T12:13:31;2.27;;;1.00;;
39930;SDS011;26635;-35.248;149.138;2023-06-19T12:16:30;3.00;;;0.80;;
39930;SDS011;26635;-35.248;149.138;2023-06-19T12:19:01;2.77;;;1.10;;
39930;SDS011;26635;-35.248;149.138;2023-06-19T12:21:32;2.33;;;0.70;;
39930;SDS011;26635;-35.248;149.138;2023-06-19T12:24:09;1.75;;;0.60;;
39930;SDS011;26635;-35.248;149.138;2023-06-19T12:26:40;1.43;;;0.50;;
39930;SDS011;26635;-35.248;149.138;2023-06-19T12:29:10;0.63;;;0.30;;
39930;SDS011;26635;-35.248;149.138;2023-06-19T12:31:43;1.07;;;0.50;;
39930;SDS011;26635;-35.248;149.138;2023-06-19T12:34:13;1.17;;;0.40;;
39930;SDS011;26635;-35.248;149.138;2023-06-19T12:36:56;0.80;;;0.40;;
39930;SDS011;26635;-35.248;149.138;2023-06-19T12:39:27;1.57;;;0.40;;
39930;SDS011;26635;-35.248;149.138;2023-06-19T12:41:58;0.90;;;0.87;;
39930;SDS011;26635;-35.248;149.138;2023-06-19T12:44:28;0.63;;;0.20;;
39930;SDS011;26635;-35.248;149.138;2023-06-19T12:46:59;1.83;;;0.90;;
39930;SDS011;26635;-35.248;149.138;2023-06-19T12:49:30;3.40;;;1.83;;
39930;SDS011;26635;-35.248;149.138;2023-06-19T12:52:05;2.13;;;0.70;;
39930;SDS011;26635;-35.248;149.138;2023-06-19T12:54:36;1.03;;;0.30;;
39930;SDS011;26635;-35.248;149.138;2023-06-19T12:57:10;0.20;;;0.10;;
39930;SDS011;26635;-35.248;149.138;2023-06-19T12:59:44;0.80;;;0.40;;
39930;SDS011;26635;-35.248;149.138;2023-06-19T13:02:24;0.57;;;0.20;;
39930;SDS011;26635;-35.248;149.138;2023-06-19T13:04:55;2.03;;;0.50;;
39930;SDS011;26635;-35.248;149.138;2023-06-19T13:07:27;2.03;;;0.73;;
39930;SDS011;26635;-35.248;149.138;2023-06-19T13:10:04;1.58;;;0.60;;
39930;SDS011;26635;-35.248;149.138;2023-06-19T13:12:38;0.90;;;0.20;;
39930;SDS011;26635;-35.248;149.138;2023-06-19T13:15:09;1.73;;;0.20;;
39930;SDS011;26635;-35.248;149.138;2023-06-19T13:17:40;0.00;;;0.00;;
39930;SDS011;26635;-35.248;149.138;2023-06-19T13:20:11;0.50;;;0.00;;
39930;SDS011;26635;-35.248;149.138;2023-06-19T13:22:44;0.07;;;0.00;;
39930;SDS011;26635;-35.248;149.138;2023-06-19T13:25:18;0.13;;;0.00;;
39930;SDS011;26635;-35.248;149.138;2023-06-19T13:27:50;0.97;;;0.43;;
39930;SDS011;26635;-35.248;149.138;2023-06-19T13:30:20;0.00;;;0.00;;
39930;SDS011;26635;-35.248;149.138;2023-06-19T13:32:51;0.10;;;0.00;;
39930;SDS011;26635;-35.248;149.138;2023-06-19T13:35:22;0.33;;;0.00;;
39930;SDS011;26635;-35.248;149.138;2023-06-19T13:37:53;0.53;;;0.20;;
39930;SDS011;26635;-35.248;149.138;2023-06-19T13:40:24;0.53;;;0.10;;
39930;SDS011;26635;-35.248;149.138;2023-06-19T13:42:55;0.30;;;0.13;;
39930;SDS011;26635;-35.248;149.138;2023-06-19T13:45:25;0.97;;;0.30;;
39930;SDS011;26635;-35.248;149.138;2023-06-19T13:47:56;0.20;;;0.10;;
39930;SDS011;26635;-35.248;149.138;2023-06-19T13:50:27;0.67;;;0.30;;
39930;SDS011;26635;-35.248;149.138;2023-06-19T13:52:58;1.10;;;0.13;;
39930;SDS011;26635;-35.248;149.138;2023-06-19T13:55:33;0.30;;;0.10;;
39930;SDS011;26635;-35.248;149.138;2023-06-19T13:58:04;2.00;;;0.80;;
39930;SDS011;26635;-35.248;149.138;2023-06-19T14:00:36;0.83;;;0.20;;
39930;SDS011;26635;-35.248;149.138;2023-06-19T14:03:08;0.67;;;0.10;;
39930;SDS011;26635;-35.248;149.138;2023-06-19T14:05:38;0.10;;;0.10;;
39930;SDS011;26635;-35.248;149.138;2023-06-19T14:08:09;0.30;;;0.00;;
39930;SDS011;26635;-35.248;149.138;2023-06-19T14:10:39;0.23;;;0.00;;
39930;SDS011;26635;-35.248;149.138;2023-06-19T14:13:10;0.70;;;0.10;;
39930;SDS011;26635;-35.248;149.138;2023-06-19T14:15:44;0.40;;;0.37;;
39930;SDS011;26635;-35.248;149.138;2023-06-19T14:18:14;2.23;;;1.10;;
39930;SDS011;26635;-35.248;149.138;2023-06-19T14:20:45;0.00;;;0.00;;
39930;SDS011;26635;-35.248;149.138;2023-06-19T14:23:15;0.27;;;0.00;;
39930;SDS011;26635;-35.248;149.138;2023-06-19T14:25:46;2.20;;;0.30;;
39930;SDS011;26635;-35.248;149.138;2023-06-19T14:28:17;0.43;;;0.10;;
39930;SDS011;26635;-35.248;149.138;2023-06-19T14:30:47;0.87;;;0.00;;
39930;SDS011;26635;-35.248;149.138;2023-06-19T14:33:18;0.20;;;0.00;;
39930;SDS011;26635;-35.248;149.138;2023-06-19T14:35:48;0.40;;;0.10;;
39930;SDS011;26635;-35.248;149.138;2023-06-19T14:38:19;0.20;;;0.00;;
39930;SDS011;26635;-35.248;149.138;2023-06-19T14:40:53;0.00;;;0.00;;
39930;SDS011;26635;-35.248;149.138;2023-06-19T14:43:26;0.10;;;0.10;;
39930;SDS011;26635;-35.248;149.138;2023-06-19T14:45:59;1.20;;;0.13;;
39930;SDS011;26635;-35.248;149.138;2023-06-19T14:48:33;0.50;;;0.50;;
39930;SDS011;26635;-35.248;149.138;2023-06-19T14:51:03;0.30;;;0.10;;